Time;durP1;ratioP1;P1;durP2;ratioP2;P2;SDS_P1;SDS_P2;PMS_P1;PMS_P2;Temp;Humidity;BMP_temperature;BMP_pressure;BME280_temperature;BME280_humidity;BME280_pressure;Samples;Min_cycle;Max_cycle;Signal;HPM_P1;HPM_P2
2021/03/09 00:01:31;;;;;;;3.60;1.10;;;;;;;-1.05;50.05;100568.75;1691099;84;21380;-61
2021/03/09 00:03:58;;;;;;;1.47;0.50;;;;;;;-1.05;49.88;100565.56;1691026;84;20968;-61
2021/03/09 00:06:26;;;;;;;3.37;1.00;;;;;;;-1.05;49.92;100562.90;1691083;83;21140;-64
2021/03/09 00:08:54;;;;;;;1.67;0.50;;;;;;;-1.03;49.84;100564.04;1689134;84;21313;-63
2021/03/09 00:11:22;;;;;;;2.07;0.90;;;;;;;-1.00;49.77;100568.20;1678077;85;21105;-64
2021/03/09 00:13:50;;;;;;;1.63;0.43;;;;;;;-1.00;49.61;100565.02;1677998;85;21461;-62
2021/03/09 00:16:18;;;;;;;2.37;0.80;;;;;;;-1.02;49.53;100561.69;1677940;85;21002;-63
2021/03/09 00:18:46;;;;;;;1.70;0.43;;;;;;;-1.03;49.46;100553.87;1678090;85;21547;-62
2021/03/09 00:21:14;;;;;;;1.47;0.80;;;;;;;-1.04;49.42;100562.39;1678011;85;21009;-63
2021/03/09 00:23:42;;;;;;;1.77;0.87;;;;;;;-1.05;49.30;100562.90;1678049;85;21183;-62
2021/03/09 00:26:11;;;;;;;1.67;0.60;;;;;;;-1.07;49.28;100562.23;1678026;84;21365;-61
2021/03/09 00:28:39;;;;;;;2.07;0.50;;;;;;;-1.06;49.33;100560.42;1677891;84;21081;-62
2021/03/09 00:31:07;;;;;;;1.73;0.57;;;;;;;-1.10;49.33;100563.95;1678017;85;21138;-62
2021/03/09 00:33:34;;;;;;;2.60;0.43;;;;;;;-1.09;49.39;100565.61;1677987;85;22058;-61
2021/03/09 00:36:03;;;;;;;2.13;0.70;;;;;;;-1.09;49.36;100562.11;1678168;84;21883;-60
2021/03/09 00:38:31;;;;;;;2.00;0.57;;;;;;;-1.08;49.41;100567.77;1678037;85;21377;-61
2021/03/09 00:40:59;;;;;;;1.27;0.53;;;;;;;-1.04;49.32;100569.06;1677930;85;20943;-60
2021/03/09 00:43:27;;;;;;;2.37;0.80;;;;;;;-1.05;49.34;100565.56;1678020;85;20966;-60
2021/03/09 00:45:55;;;;;;;1.80;0.60;;;;;;;-1.04;49.43;100565.06;1677968;84;21151;-63
2021/03/09 00:48:22;;;;;;;2.90;1.00;;;;;;;-1.05;49.47;100565.56;1677995;85;21505;-63
2021/03/09 00:50:52;;;;;;;2.90;0.80;;;;;;;-1.02;49.56;100564.87;1678018;84;22642;-62
2021/03/09 00:53:20;;;;;;;2.27;0.50;;;;;;;-0.96;49.41;100564.98;1677941;85;20970;-62
2021/03/09 00:55:47;;;;;;;4.20;1.10;;;;;;;-0.91;49.32;100569.74;1677982;85;21013;-61
2021/03/09 00:58:15;;;;;;;1.70;0.60;;;;;;;-0.89;49.35;100568.55;1677967;85;21136;-62
2021/03/09 01:00:44;;;;;;;1.93;0.83;;;;;;;-0.88;49.40;100564.04;1678077;85;21584;-62
2021/03/09 01:03:11;;;;;;;1.90;0.77;;;;;;;-0.86;49.23;100577.55;1677923;83;23710;-63
2021/03/09 01:05:39;;;;;;;3.67;0.57;;;;;;;-0.85;49.29;100574.37;1678021;85;21068;-63
2021/03/09 01:08:07;;;;;;;2.53;0.80;;;;;;;-0.80;49.24;100568.79;1677895;85;21010;-63
2021/03/09 01:10:35;;;;;;;1.30;0.60;;;;;;;-0.77;49.16;100581.44;1686684;83;20989;-62
2021/03/09 01:13:03;;;;;;;2.20;0.70;;;;;;;-0.75;49.18;100578.09;1691084;83;21654;-63
2021/03/09 01:15:31;;;;;;;1.60;0.40;;;;;;;-0.76;49.21;100583.95;1691125;84;21218;-64
2021/03/09 01:18:01;;;;;;;1.80;0.70;;;;;;;-0.73;49.21;100580.89;1688201;84;21091;-63
2021/03/09 01:20:29;;;;;;;1.73;0.60;;;;;;;-0.69;49.23;100582.69;1690986;83;21068;-65
2021/03/09 01:22:57;;;;;;;2.03;0.70;;;;;;;-0.64;49.18;100581.62;1691027;84;20965;-64
2021/03/09 01:25:25;;;;;;;1.00;0.57;;;;;;;-0.63;49.05;100577.42;1691094;83;21564;-63
2021/03/09 01:27:53;;;;;;;2.40;0.50;;;;;;;-0.60;49.17;100581.07;1691140;83;21068;-63
2021/03/09 01:30:22;;;;;;;2.70;0.70;;;;;;;-0.55;49.13;100584.52;1690952;83;20933;-62
2021/03/09 01:32:49;;;;;;;1.97;0.80;;;;;;;-0.52;49.10;100586.80;1691130;83;21460;-61
2021/03/09 01:35:17;;;;;;;1.70;0.50;;;;;;;-0.51;48.97;100585.78;1691068;83;20969;-62
2021/03/09 01:37:45;;;;;;;1.57;0.50;;;;;;;-0.53;49.04;100587.31;1691071;84;21544;-61
2021/03/09 01:40:13;;;;;;;1.80;0.55;;;;;;;-0.49;49.04;100589.63;1691115;83;22325;-60
2021/03/09 01:42:41;;;;;;;1.80;0.47;;;;;;;-0.47;49.09;100583.06;1690986;84;21076;-62
2021/03/09 01:45:11;;;;;;;1.17;0.50;;;;;;;-0.42;48.93;100583.84;1691032;83;20958;-62
2021/03/09 01:47:44;;;;;;;2.13;0.50;;;;;;;-0.44;49.04;100581.36;1691016;84;20970;-62
2021/03/09 01:50:14;;;;;;;4.73;0.50;;;;;;;-0.44;49.12;100588.55;1691069;84;20961;-62
2021/03/09 01:52:42;;;;;;;4.23;1.20;;;;;;;-0.42;49.26;100579.83;1691142;84;22286;-61
2021/03/09 01:55:11;;;;;;;2.33;0.97;;;;;;;-0.40;49.04;100586.66;1691042;84;21108;-62
2021/03/09 01:57:40;;;;;;;1.77;0.70;;;;;;;-0.40;49.02;100588.51;1691003;84;21088;-60
2021/03/09 02:00:10;;;;;;;1.37;0.73;;;;;;;-0.42;49.04;100598.03;1690983;84;20961;-62
2021/03/09 02:02:41;;;;;;;2.00;0.60;;;;;;;-0.43;49.19;100591.55;1691047;84;20971;-61
2021/03/09 02:05:12;;;;;;;2.67;0.80;;;;;;;-0.40;49.26;100592.01;1691031;84;21430;-61
2021/03/09 02:07:40;;;;;;;1.70;0.80;;;;;;;-0.37;49.28;100592.13;1690995;84;21504;-61
2021/03/09 02:10:14;;;;;;;1.20;0.40;;;;;;;-0.33;49.32;100593.41;1690886;84;20961;-61
2021/03/09 02:13:07;;;;;;;1.97;0.50;;;;;;;-0.32;49.18;100587.05;1691008;84;20961;-61
2021/03/09 02:15:39;;;;;;;1.63;0.70;;;;;;;-0.36;49.28;100593.27;1691084;84;21001;-64
2021/03/09 02:18:21;;;;;;;2.53;0.80;;;;;;;-0.33;49.39;100598.77;1691059;83;21203;-62
2021/03/09 02:21:19;;;;;;;2.07;0.50;;;;;;;-0.32;49.39;100593.22;1691007;84;21084;-61
2021/03/09 02:23:58;;;;;;;2.83;1.00;;;;;;;-0.30;49.41;100601.89;1690813;84;21175;-62
2021/03/09 02:26:57;;;;;;;4.77;1.23;;;;;;;-0.34;49.39;100592.59;1691126;83;21167;-61
2021/03/09 02:29:44;;;;;;;2.63;1.17;;;;;;;-0.35;49.57;100596.80;1691068;83;21110;-62
2021/03/09 02:32:15;;;;;;;2.45;0.80;;;;;;;-0.34;49.59;100607.80;1691343;84;21403;-63
2021/03/09 02:34:48;;;;;;;3.20;0.87;;;;;;;-0.34;49.60;100606.47;1691157;83;21185;-62
2021/03/09 02:37:16;;;;;;;2.27;0.57;;;;;;;-0.33;49.70;100610.79;1691179;84;21054;-60
2021/03/09 02:39:46;;;;;;;2.93;0.67;;;;;;;-0.31;49.67;100613.58;1691117;83;21212;-62
2021/03/09 02:42:24;;;;;;;1.43;0.80;;;;;;;-0.31;49.67;100616.26;1691290;83;21515;-60
2021/03/09 02:44:55;;;;;;;2.87;0.70;;;;;;;-0.29;49.74;100616.09;1691231;84;21378;-60
2021/03/09 02:47:22;;;;;;;1.80;0.70;;;;;;;-0.26;49.79;100619.70;1665669;84;21507;-60
2021/03/09 02:49:50;;;;;;;2.07;0.70;;;;;;;-0.24;49.78;100615.53;1691103;83;21500;-60
2021/03/09 02:52:20;;;;;;;1.00;0.53;;;;;;;-0.23;49.70;100619.34;1691091;84;21503;-60
2021/03/09 02:54:50;;;;;;;2.23;0.60;;;;;;;-0.27;49.84;100620.22;1691225;83;21060;-62
2021/03/09 02:57:19;;;;;;;2.23;0.53;;;;;;;-0.26;49.85;100623.72;1691206;84;21491;-61
2021/03/09 02:59:47;;;;;;;1.60;0.77;;;;;;;-0.23;49.99;100622.53;1691125;83;21029;-61
2021/03/09 03:02:17;;;;;;;2.47;0.60;;;;;;;-0.26;49.96;100624.55;1691157;84;21619;-61
2021/03/09 03:04:48;;;;;;;3.07;0.53;;;;;;;-0.29;50.13;100625.45;1691175;84;21004;-61
2021/03/09 03:07:16;;;;;;;2.33;0.60;;;;;;;-0.23;50.11;100627.88;1665473;84;20953;-62
2021/03/09 03:09:45;;;;;;;2.10;0.50;;;;;;;-0.24;50.15;100637.75;1691064;83;21453;-64
2021/03/09 03:12:14;;;;;;;2.90;0.77;;;;;;;-0.24;50.16;100632.91;1691119;84;21067;-62
2021/03/09 03:14:43;;;;;;;1.23;0.60;;;;;;;-0.21;50.18;100641.88;1691157;83;21076;-63
2021/03/09 03:17:12;;;;;;;1.63;0.50;;;;;;;-0.22;50.21;100642.91;1691165;84;20985;-62
2021/03/09 03:19:41;;;;;;;1.25;0.50;;;;;;;-0.22;50.21;100645.58;1665061;84;21061;-62
2021/03/09 03:22:09;;;;;;;2.13;0.57;;;;;;;-0.22;50.28;100645.06;1691189;84;22779;-60
2021/03/09 03:24:37;;;;;;;2.23;0.40;;;;;;;-0.23;50.23;100638.06;1691079;84;21587;-59
2021/03/09 03:27:06;;;;;;;2.93;0.90;;;;;;;-0.18;50.23;100654.37;1691116;84;21005;-60
2021/03/09 03:29:34;;;;;;;1.73;0.57;;;;;;;-0.16;50.15;100650.99;1665237;84;21183;-60
2021/03/09 03:32:02;;;;;;;1.43;0.50;;;;;;;-0.16;50.12;100648.31;1691151;83;20989;-60
2021/03/09 03:34:30;;;;;;;2.80;0.90;;;;;;;-0.13;50.08;100651.97;1691185;83;21219;-60
2021/03/09 03:36:58;;;;;;;2.03;0.83;;;;;;;-0.11;50.11;100661.95;1691075;84;21083;-61
2021/03/09 03:39:26;;;;;;;3.33;0.43;;;;;;;-0.09;50.08;100661.80;1691109;84;21000;-60
2021/03/09 03:41:55;;;;;;;3.90;0.77;;;;;;;-0.09;50.12;100659.94;1691196;83;21158;-61
2021/03/09 03:44:23;;;;;;;2.20;0.70;;;;;;;-0.11;49.88;100659.28;1691121;84;21234;-61
2021/03/09 03:46:51;;;;;;;1.90;0.53;;;;;;;-0.11;49.94;100660.63;1691192;84;21223;-62
2021/03/09 03:49:19;;;;;;;3.60;0.53;;;;;;;-0.10;49.84;100666.80;1691058;84;20953;-62
2021/03/09 03:51:50;;;;;;;3.30;1.05;;;;;;;-0.08;49.79;100666.12;1691095;84;21126;-61
2021/03/09 03:54:42;;;;;;;2.00;0.53;;;;;;;-0.06;49.80;100671.59;1691140;83;21512;-61
2021/03/09 03:57:18;;;;;;;1.10;0.45;;;;;;;-0.05;49.68;100669.73;1666759;84;21547;-61
2021/03/09 03:59:49;;;;;;;1.72;0.75;;;;;;;-0.06;49.52;100666.75;1691224;84;22121;-62
2021/03/09 04:02:17;;;;;;;1.70;0.65;;;;;;;-0.06;49.47;100664.07;1691078;84;21013;-62
2021/03/09 04:04:46;;;;;;;1.50;0.77;;;;;;;-0.02;49.55;100672.05;1691089;84;21583;-61
2021/03/09 04:07:14;;;;;;;2.53;0.73;;;;;;;-0.01;49.50;100674.52;1691063;83;20977;-61
2021/03/09 04:09:44;;;;;;;1.30;0.60;;;;;;;0.02;49.43;100670.66;1691102;83;21092;-61
2021/03/09 04:12:13;;;;;;;2.50;0.70;;;;;;;0.04;49.32;100679.31;1650798;84;21360;-60
2021/03/09 04:14:41;;;;;;;1.87;0.73;;;;;;;0.04;49.32;100679.31;1698317;84;20972;-61
2021/03/09 04:17:09;;;;;;;2.00;0.63;;;;;;;0.01;49.42;100682.39;1698348;84;21497;-61
2021/03/09 04:19:37;;;;;;;3.22;0.55;;;;;;;0.02;49.39;100688.05;1650544;84;21013;-61
2021/03/09 04:22:04;;;;;;;1.47;0.40;;;;;;;0.02;49.33;100684.03;1672670;84;21122;-63
2021/03/09 04:24:32;;;;;;;2.30;0.70;;;;;;;0.03;49.52;100693.72;1698314;84;21632;-63
2021/03/09 04:27:00;;;;;;;2.23;1.07;;;;;;;0.01;49.45;100694.42;1698278;84;21115;-60
2021/03/09 04:29:28;;;;;;;1.87;0.57;;;;;;;0.02;49.44;100698.75;1698325;84;20957;-60
2021/03/09 04:31:56;;;;;;;1.13;0.37;;;;;;;0.05;49.51;100697.53;1698311;84;20964;-60
2021/03/09 04:34:24;;;;;;;1.20;0.47;;;;;;;0.04;49.44;100697.22;1698402;84;21634;-60
2021/03/09 04:36:52;;;;;;;1.30;0.53;;;;;;;0.04;49.37;100702.05;1672586;84;22795;-59
2021/03/09 04:39:20;;;;;;;1.67;0.60;;;;;;;0.07;49.50;100701.69;1698273;83;20969;-59
2021/03/09 04:41:48;;;;;;;1.53;0.37;;;;;;;0.08;49.54;100706.02;1672513;84;21139;-60
2021/03/09 04:44:16;;;;;;;1.67;0.50;;;;;;;0.09;49.33;100704.17;1698300;84;20977;-59
2021/03/09 04:46:43;;;;;;;1.23;0.47;;;;;;;0.09;49.31;100709.52;1698290;83;21162;-59
2021/03/09 04:49:16;;;;;;;1.33;0.67;;;;;;;0.08;49.16;100708.70;1698322;84;21210;-60
2021/03/09 04:51:45;;;;;;;1.15;0.47;;;;;;;0.12;49.10;100710.50;1698270;83;21064;-61
2021/03/09 04:54:15;;;;;;;1.90;0.80;;;;;;;0.16;49.30;100713.95;1698351;84;21630;-61
2021/03/09 04:56:44;;;;;;;2.20;0.50;;;;;;;0.22;49.25;100717.20;1672868;84;21653;-59
2021/03/09 04:59:12;;;;;;;2.12;0.68;;;;;;;0.26;48.89;100719.00;1698354;84;20972;-59
2021/03/09 05:01:40;;;;;;;1.23;0.50;;;;;;;0.27;48.94;100731.36;1698283;83;23446;-61
2021/03/09 05:04:08;;;;;;;1.37;0.50;;;;;;;0.26;49.18;100728.37;1698215;83;21087;-57
2021/03/09 05:06:36;;;;;;;1.40;0.50;;;;;;;0.27;48.84;100727.34;1710478;83;21612;-60
2021/03/09 05:09:13;;;;;;;1.00;0.53;;;;;;;0.30;48.57;100736.83;1716779;83;21069;-60
2021/03/09 05:11:43;;;;;;;1.67;0.40;;;;;;;0.26;48.38;100736.40;1705855;83;21187;-60
2021/03/09 05:14:12;;;;;;;2.20;0.80;;;;;;;0.26;48.20;100735.06;1709631;82;21403;-61
2021/03/09 05:16:39;;;;;;;1.27;0.42;;;;;;;0.29;48.14;100736.52;1704499;82;21846;-62
2021/03/09 05:19:12;;;;;;;2.87;0.50;;;;;;;0.31;48.21;100742.02;1705543;84;21580;-62
2021/03/09 05:21:40;;;;;;;1.77;0.57;;;;;;;0.36;48.24;100744.95;1706217;84;21477;-61
2021/03/09 05:24:09;;;;;;;1.40;0.65;;;;;;;0.43;48.11;100750.38;1706309;84;21141;-59
2021/03/09 05:26:37;;;;;;;2.67;1.87;;;;;;;0.49;48.07;100758.98;1706383;84;22273;-60
2021/03/09 05:29:05;;;;;;;2.33;0.70;;;;;;;0.57;48.41;100759.39;1703496;84;21061;-61
2021/03/09 05:31:32;;;;;;;3.03;1.10;;;;;;;0.64;48.99;100761.11;1706305;84;21548;-59
2021/03/09 05:34:03;;;;;;;1.57;0.50;;;;;;;0.68;49.32;100770.42;1698861;84;21061;-59
2021/03/09 05:36:33;;;;;;;3.27;0.70;;;;;;;0.68;49.42;100761.05;1706399;82;21092;-58
2021/03/09 05:39:01;;;;;;;1.63;1.07;;;;;;;0.70;49.82;100776.92;1691491;83;21429;-61
2021/03/09 05:41:28;;;;;;;3.52;0.80;;;;;;;0.73;50.41;100772.53;1703562;84;20953;-59
2021/03/09 05:43:56;;;;;;;3.33;0.90;;;;;;;0.76;50.69;100770.80;1706384;84;21149;-57
2021/03/09 05:46:25;;;;;;;4.73;1.33;;;;;;;0.82;50.91;100780.77;1698563;84;21013;-58
2021/03/09 05:48:53;;;;;;;2.35;0.95;;;;;;;0.85;50.87;100775.53;1699530;83;21132;-61
2021/03/09 05:51:22;;;;;;;2.02;0.60;;;;;;;0.92;50.92;100785.81;1683314;84;21387;-57
2021/03/09 05:53:50;;;;;;;2.40;1.37;;;;;;;0.93;50.81;100786.95;1690633;84;21025;-60
2021/03/09 05:56:18;;;;;;;4.53;0.85;;;;;;;0.95;50.97;100796.13;1706353;83;20994;-60
2021/03/09 05:58:45;;;;;;;2.27;0.80;;;;;;;0.96;51.03;100796.45;1706034;84;21135;-60
2021/03/09 06:01:13;;;;;;;4.08;1.12;;;;;;;0.95;51.13;100804.17;1663324;84;21171;-60
2021/03/09 06:03:41;;;;;;;4.55;1.15;;;;;;;0.94;51.08;100803.34;1704928;82;22051;-60
2021/03/09 06:06:11;;;;;;;10.05;0.93;;;;;;;0.92;51.13;100804.06;1705594;84;21172;-61
2021/03/09 06:08:39;;;;;;;4.33;1.00;;;;;;;0.94;50.93;100812.72;1685982;84;21145;-60
2021/03/09 06:11:18;;;;;;;2.60;1.00;;;;;;;0.97;51.06;100814.20;1705884;83;21125;-59
2021/03/09 06:13:46;;;;;;;4.22;1.05;;;;;;;1.02;51.09;100823.33;1706322;84;21140;-59
2021/03/09 06:16:14;;;;;;;9.65;1.60;;;;;;;1.09;50.99;100827.41;1706347;83;21389;-59
2021/03/09 06:18:56;;;;;;;4.20;1.10;;;;;;;1.11;50.99;100829.37;1706254;84;21057;-60
2021/03/09 06:21:25;;;;;;;4.20;1.67;;;;;;;1.14;51.06;100833.02;1706347;84;21038;-61
2021/03/09 06:25:20;;;;;;;3.83;1.53;;;;;;;1.16;51.06;100839.00;1776941;79;23255;-60
2021/03/09 06:27:48;;;;;;;3.37;1.32;;;;;;;1.12;51.49;100843.63;1749675;82;20961;-59
2021/03/09 06:30:32;;;;;;;4.72;2.25;;;;;;;1.12;51.41;100844.97;1745434;82;21511;-61
2021/03/09 06:33:00;;;;;;;3.33;1.67;;;;;;;1.13;51.40;100849.30;1728767;82;21583;-62
2021/03/09 06:35:40;;;;;;;2.05;1.22;;;;;;;1.14;51.61;100852.30;1731130;82;21017;-61
2021/03/09 06:38:24;;;;;;;3.52;1.30;;;;;;;1.15;51.86;100858.80;1719800;83;20933;-61
2021/03/09 06:41:15;;;;;;;2.42;1.07;;;;;;;1.15;51.76;100863.33;1739341;82;21721;-61
2021/03/09 06:44:01;;;;;;;1.73;0.50;;;;;;;1.12;51.88;100859.70;1749583;81;21191;-62
2021/03/09 06:46:29;;;;;;;3.25;0.70;;;;;;;1.09;51.52;100868.94;1742138;82;21029;-61
2021/03/09 06:49:04;;;;;;;1.17;0.50;;;;;;;1.06;51.55;100865.80;1719732;83;21480;-61
2021/03/09 06:51:35;;;;;;;2.12;0.80;;;;;;;1.04;51.75;100868.69;1748814;82;20974;-63
2021/03/09 06:54:09;;;;;;;1.75;0.55;;;;;;;1.03;52.08;100878.58;1749617;80;20957;-62
2021/03/09 06:56:42;;;;;;;1.53;0.73;;;;;;;1.01;52.34;100882.45;1742779;82;22581;-61
2021/03/09 06:59:31;;;;;;;2.40;1.32;;;;;;;0.93;52.80;100888.77;1719715;83;21012;-63
2021/03/09 07:02:13;;;;;;;3.57;1.40;;;;;;;0.88;53.23;100889.84;1719799;83;20965;-61
2021/03/09 07:04:46;;;;;;;2.13;1.10;;;;;;;0.90;53.27;100893.15;1695359;83;21064;-69
2021/03/09 07:07:18;;;;;;;1.57;0.90;;;;;;;0.85;53.52;100892.06;1661950;86;21551;-66
2021/03/09 07:09:56;;;;;;;1.53;0.80;;;;;;;0.78;53.83;100895.49;1632262;87;22288;-67
2021/03/09 07:12:25;;;;;;;1.67;0.83;;;;;;;0.72;53.83;100892.75;1647954;86;20999;-67
2021/03/09 07:14:53;;;;;;;1.20;0.90;;;;;;;0.70;54.14;100897.44;1690663;83;21021;-63
2021/03/09 07:17:24;;;;;;;1.17;0.97;;;;;;;0.68;54.31;100896.81;1690684;84;21171;-61
2021/03/09 07:19:52;;;;;;;1.57;1.10;;;;;;;0.67;54.43;100898.66;1690736;84;21133;-61
2021/03/09 07:22:22;;;;;;;1.22;0.88;;;;;;;0.65;54.00;100901.19;1690412;84;21206;-62
2021/03/09 07:25:07;;;;;;;2.03;1.63;;;;;;;0.60;53.32;100899.58;1685661;84;21061;-67
2021/03/09 07:27:43;;;;;;;4.00;1.10;;;;;;;0.55;53.52;100900.64;1673429;85;21131;-64
2021/03/09 07:30:13;;;;;;;2.92;1.25;;;;;;;0.54;53.51;100900.33;1699795;84;21005;-69
2021/03/09 07:32:43;;;;;;;3.08;1.12;;;;;;;0.56;53.17;100899.14;1709345;84;21594;-66
2021/03/09 07:35:13;;;;;;;3.27;1.27;;;;;;;0.55;53.28;100893.44;1708963;84;22358;-64
2021/03/09 07:37:42;;;;;;;2.10;1.20;;;;;;;0.58;53.48;100905.13;1708640;84;21147;-67
2021/03/09 07:40:19;;;;;;;1.87;0.95;;;;;;;0.63;53.69;100907.25;1708723;84;21167;-62
2021/03/09 07:42:47;;;;;;;0.62;0.62;;;;;;;0.70;53.50;100904.14;1708593;82;21132;-66
2021/03/09 07:45:17;;;;;;;1.80;0.80;;;;;;;0.77;53.13;100905.06;1708240;82;21164;-63
2021/03/09 07:47:58;;;;;;;1.13;0.60;;;;;;;0.81;52.71;100911.69;1695448;82;22275;-63
2021/03/09 07:50:33;;;;;;;2.70;1.30;;;;;;;0.86;52.43;100909.78;1695627;84;22388;-64
2021/03/09 07:53:06;;;;;;;2.10;1.00;;;;;;;0.87;52.30;100919.00;1647098;85;21010;-63
2021/03/09 07:55:39;;;;;;;3.40;0.83;;;;;;;0.90;52.16;100915.92;1680131;84;21050;-64
2021/03/09 07:58:25;;;;;;;1.92;1.10;;;;;;;0.91;51.86;100916.27;1679498;84;20981;-73
2021/03/09 08:01:03;;;;;;;1.93;1.40;;;;;;;0.86;51.97;100922.67;1647226;86;21156;-76
2021/03/09 08:03:43;;;;;;;2.47;1.33;;;;;;;0.83;52.34;100919.05;1646993;85;21029;-69
2021/03/09 08:06:15;;;;;;;2.63;1.20;;;;;;;0.87;52.79;100919.51;1680295;85;21010;-64
2021/03/09 08:08:53;;;;;;;3.12;1.55;;;;;;;0.95;52.29;100920.72;1647040;85;21026;-66
2021/03/09 08:11:26;;;;;;;3.37;1.57;;;;;;;1.01;52.39;100914.60;1680277;84;21107;-68
2021/03/09 08:14:08;;;;;;;2.75;1.45;;;;;;;1.09;52.28;100916.36;1638846;87;21390;-70
2021/03/09 08:16:38;;;;;;;2.75;1.60;;;;;;;1.12;52.40;100912.80;1699672;84;21523;-72
2021/03/09 08:19:25;;;;;;;3.33;1.75;;;;;;;1.13;51.96;100921.15;1708854;83;21044;-69
2021/03/09 08:22:03;;;;;;;3.33;1.92;;;;;;;1.12;51.89;100918.67;1708753;84;21049;-62
2021/03/09 08:24:46;;;;;;;4.30;1.82;;;;;;;1.10;51.83;100918.01;1708588;83;21146;-65
2021/03/09 08:27:32;;;;;;;2.00;1.75;;;;;;;1.13;51.97;100918.98;1700249;84;23673;-75
2021/03/09 08:30:26;;;;;;;3.17;1.75;;;;;;;1.16;51.89;100917.24;1687533;84;21382;-75
2021/03/09 08:33:15;;;;;;;1.90;1.67;;;;;;;1.30;51.62;100919.88;1680305;85;20962;-65
2021/03/09 08:35:43;;;;;;;2.30;1.35;;;;;;;1.72;51.51;100917.38;1646953;87;21160;-67
2021/03/09 08:38:13;;;;;;;2.75;1.10;;;;;;;2.35;50.38;100919.63;1680363;84;21144;-66
2021/03/09 08:41:05;;;;;;;5.28;1.50;;;;;;;2.90;49.38;100917.02;1702958;84;21423;-78
2021/03/09 08:43:33;;;;;;;2.65;1.15;;;;;;;3.34;48.32;100921.37;1708720;84;21215;-67
2021/03/09 08:46:03;;;;;;;3.02;1.30;;;;;;;3.67;46.86;100918.44;1708745;84;21030;-69
2021/03/09 08:48:49;;;;;;;4.75;1.67;;;;;;;3.99;46.15;100920.30;1708659;84;21050;-64
2021/03/09 08:51:43;;;;;;;;;;;;;;;4.41;45.39;100910.94;1711394;84;20961;-70
2021/03/09 08:54:28;;;;;;;5.47;1.47;;;;;;;4.97;43.17;100918.09;1708725;84;21202;-65
2021/03/09 08:57:00;;;;;;;4.50;1.70;;;;;;;5.51;41.60;100906.80;1708500;82;21535;-74
2021/03/09 08:59:30;;;;;;;8.48;4.53;;;;;;;5.79;40.41;100914.49;1688881;83;21512;-72
2021/03/09 09:02:24;;;;;;;4.75;2.30;;;;;;;5.89;40.92;100911.30;1708875;82;20961;-69
2021/03/09 09:04:54;;;;;;;3.37;1.62;;;;;;;5.95;40.23;100912.63;1708725;83;21564;-62
2021/03/09 09:07:28;;;;;;;3.95;1.70;;;;;;;6.22;39.81;100915.08;1708917;83;22058;-77
2021/03/09 09:09:59;;;;;;;4.55;1.80;;;;;;;6.06;38.81;100912.95;1708918;83;21017;-79
2021/03/09 09:12:37;;;;;;;5.15;1.92;;;;;;;5.81;38.96;100911.56;1708852;83;21144;-63
2021/03/09 09:15:23;;;;;;;3.45;1.90;;;;;;;5.50;39.31;100911.89;1708792;84;21894;-60
2021/03/09 09:17:59;;;;;;;4.75;1.98;;;;;;;5.17;39.34;100916.13;1709083;83;21144;-72
2021/03/09 09:20:48;;;;;;;1.82;1.65;;;;;;;4.83;40.23;100918.16;1708498;83;21214;-66
2021/03/09 09:23:26;;;;;;;5.55;1.27;;;;;;;4.15;40.34;100933.33;1708658;84;21516;-68
2021/03/09 09:25:58;;;;;;;2.22;1.05;;;;;;;4.15;40.34;100933.33;1713716;82;21128;-63
2021/03/09 09:28:33;;;;;;;3.52;1.45;;;;;;;3.80;40.80;100924.66;1711586;82;21136;-67
2021/03/09 09:31:12;;;;;;;2.80;1.27;;;;;;;3.52;41.39;100930.21;1706905;82;21144;-72
2021/03/09 09:33:53;;;;;;;2.12;0.98;;;;;;;3.26;41.90;100939.05;1696724;84;21398;-67
2021/03/09 09:36:25;;;;;;;2.72;2.00;;;;;;;3.00;42.25;100934.42;1708764;83;21009;-75
2021/03/09 09:38:54;;;;;;;2.87;1.85;;;;;;;2.79;42.46;100939.92;1708490;84;21013;-72
2021/03/09 09:41:22;;;;;;;11.25;6.00;;;;;;;2.63;42.57;100940.23;1704702;82;21265;-71
2021/03/09 09:43:51;;;;;;;10.68;6.58;;;;;;;2.56;43.24;100940.20;1692746;82;21591;-63
2021/03/09 09:46:25;;;;;;;5.00;2.58;;;;;;;2.50;43.22;100949.05;1663782;85;21199;-67
2021/03/09 09:48:53;;;;;;;3.15;1.72;;;;;;;2.44;43.84;100956.56;1679730;85;21175;-74
2021/03/09 09:51:24;;;;;;;6.15;2.40;;;;;;;2.39;45.25;100963.86;1663897;85;21293;-68
2021/03/09 09:53:54;;;;;;;4.62;2.65;;;;;;;2.34;46.08;100956.39;1698622;84;21563;-64
2021/03/09 09:56:24;;;;;;;3.95;2.20;;;;;;;2.29;46.50;100960.18;1708540;82;21214;-65
2021/03/09 09:59:26;;;;;;;5.20;2.20;;;;;;;2.32;47.13;100962.97;1708334;84;21408;-62
2021/03/09 10:05:25;;;;;;;4.50;2.25;;;;;;;2.53;46.82;100963.41;1697460;82;21156;-62
2021/03/09 10:07:53;;;;;;;4.70;2.58;;;;;;;2.93;46.79;100960.42;1708333;82;21631;-71
2021/03/09 10:10:22;;;;;;;5.97;2.62;;;;;;;3.49;46.83;100961.55;1708434;82;21156;-76
2021/03/09 10:12:50;;;;;;;2.85;2.15;;;;;;;4.19;45.88;100959.86;1708722;84;21201;-75
2021/03/09 10:15:19;;;;;;;9.55;3.30;;;;;;;4.56;45.25;100956.51;1708386;82;21065;-68
2021/03/09 10:17:47;;;;;;;5.78;2.77;;;;;;;4.80;44.00;100953.62;1708432;82;21159;-68
2021/03/09 10:20:22;;;;;;;4.75;2.02;;;;;;;4.84;43.65;100954.86;1708304;82;21073;-69
2021/03/09 10:23:02;;;;;;;7.10;1.70;;;;;;;4.78;42.38;100950.33;1712325;82;21724;-67
2021/03/09 10:25:29;;;;;;;3.65;1.80;;;;;;;4.62;42.03;100954.31;1730600;81;21414;-72
2021/03/09 10:28:03;;;;;;;3.42;1.70;;;;;;;4.46;41.77;100964.69;1719326;82;22212;-66
2021/03/09 10:30:39;;;;;;;6.92;1.67;;;;;;;4.28;42.53;100968.87;1719587;82;21622;-75
2021/03/09 10:33:11;;;;;;;4.85;2.35;;;;;;;4.02;43.51;100968.36;1719183;82;21077;-65
2021/03/09 10:36:04;;;;;;;8.13;2.65;;;;;;;3.79;44.27;100972.78;1719280;83;21570;-67
2021/03/09 10:38:33;;;;;;;5.78;2.62;;;;;;;3.64;44.70;100974.83;1719230;82;21383;-66
2021/03/09 10:41:01;;;;;;;4.83;2.05;;;;;;;3.50;44.95;100983.92;1692556;83;21252;-72
2021/03/09 10:43:46;;;;;;;2.45;1.75;;;;;;;3.44;45.08;100983.37;1715495;82;21064;-74
2021/03/09 10:46:14;;;;;;;2.80;2.00;;;;;;;3.31;45.05;100979.62;1732007;82;21642;-71
2021/03/09 10:48:41;;;;;;;4.40;1.92;;;;;;;3.17;45.41;100977.08;1749182;82;21163;-72
2021/03/09 10:51:21;;;;;;;3.10;2.22;;;;;;;3.02;45.64;100975.36;1749469;82;22536;-64
2021/03/09 10:53:50;;;;;;;2.25;1.42;;;;;;;2.90;45.34;100974.28;1748875;82;21152;-66
2021/03/09 10:56:18;;;;;;;3.25;1.40;;;;;;;2.80;43.83;100977.85;1749007;82;20981;-67
2021/03/09 10:58:46;;;;;;;7.85;1.98;;;;;;;2.63;43.09;100980.52;1734811;82;21484;-67
2021/03/09 11:01:14;;;;;;;4.35;2.25;;;;;;;2.46;43.66;100994.27;1676931;84;21159;-67
2021/03/09 11:03:42;;;;;;;7.90;3.20;;;;;;;2.40;44.91;100997.74;1690263;83;21413;-70
2021/03/09 11:06:10;;;;;;;3.60;2.15;;;;;;;2.34;46.16;100999.36;1690520;84;21835;-69
2021/03/09 11:08:38;;;;;;;1.60;1.35;;;;;;;2.29;46.86;100995.09;1690958;84;21135;-68
2021/03/09 11:11:06;;;;;;;3.83;2.20;;;;;;;2.22;47.17;100995.53;1719261;82;21543;-72
2021/03/09 11:13:34;;;;;;;2.83;1.40;;;;;;;2.15;46.82;100997.34;1724074;82;21139;-68
2021/03/09 11:16:05;;;;;;;1.47;1.17;;;;;;;2.08;46.12;101003.18;1727486;82;21270;-66
2021/03/09 11:18:33;;;;;;;1.75;1.27;;;;;;;2.00;46.54;101009.50;1719186;82;21187;-74
2021/03/09 11:21:01;;;;;;;1.92;1.17;;;;;;;1.98;45.82;101007.53;1719346;83;20965;-71
2021/03/09 11:23:28;;;;;;;4.20;1.30;;;;;;;1.94;45.32;101008.93;1719142;83;21823;-74
2021/03/09 11:25:56;;;;;;;1.75;1.15;;;;;;;1.89;45.38;101004.66;1712990;82;21085;-69
2021/03/09 11:28:25;;;;;;;2.35;1.10;;;;;;;1.87;44.91;101008.53;1708638;84;21207;-71
2021/03/09 11:30:52;;;;;;;2.08;1.10;;;;;;;1.85;44.17;101000.69;1708642;82;21206;-78
2021/03/09 11:33:20;;;;;;;3.27;1.57;;;;;;;1.89;44.44;101003.31;1708404;83;21191;-73
2021/03/09 11:35:48;;;;;;;3.52;1.37;;;;;;;1.97;43.88;101000.48;1705829;84;21202;-63
2021/03/09 11:38:16;;;;;;;1.75;1.50;;;;;;;2.02;43.83;101004.75;1692923;84;21158;-74
2021/03/09 11:40:44;;;;;;;3.67;1.67;;;;;;;2.08;43.62;100999.16;1649278;85;21405;-72
2021/03/09 11:43:12;;;;;;;2.58;1.60;;;;;;;2.27;43.81;100998.45;1707914;84;21036;-69
2021/03/09 11:45:41;;;;;;;3.30;1.57;;;;;;;2.49;43.75;100999.78;1695084;84;21180;-69
2021/03/09 11:48:09;;;;;;;4.25;1.75;;;;;;;2.74;43.09;101002.84;1661613;84;22354;-74
2021/03/09 11:50:37;;;;;;;4.12;1.72;;;;;;;2.85;42.61;100996.37;1641889;86;21163;-66
2021/03/09 11:53:06;;;;;;;2.58;1.80;;;;;;;3.09;41.58;100994.20;1679705;85;21207;-64
2021/03/09 11:55:36;;;;;;;4.62;2.02;;;;;;;3.17;41.67;100994.56;1645551;87;21259;-65
2021/03/09 11:58:04;;;;;;;4.67;1.90;;;;;;;3.25;41.39;100987.16;1679929;85;21175;-70